Terminal Aerodrome Forecast
Issued by NWS

Home | Current Version | Previous Version | Text Only | Print | Product List | Glossary On
Versions: 1 2 3 4 5 6 7 8 9 10 11 12 13 14 15
894
FTUS45 KFGZ 191737
TAFSEZ
TAF
KSEZ 191737Z 1918/2018 04008KT P6SM SCT250
     FM191900 18010G18KT P6SM BKN250
     FM200100 20010G15KT P6SM SCT060 BKN200
     FM201000 18012G22KT P6SM SCT035 BKN070
     FM201200 18011KT P6SM OVC060
      TEMPO 2012/2015 P6SM -RA OVC045
     FM201500 18013KT P6SM OVC025
      TEMPO 2015/2018 P6SM -SHRA OVC020=

USA.gov is the U.S. government's official web portal to all federal, state and local government web resources and services.